Time;durP1;ratioP1;P1;durP2;ratioP2;P2;SDS_P1;SDS_P2;PMS_P1;PMS_P2;Temp;Humidity;BMP_temperature;BMP_pressure;BME280_temperature;BME280_humidity;BME280_pressure;Samples;Min_cycle;Max_cycle;Signal;HPM_P1;HPM_P2
2023/05/10 02:07:37;;;;;;;16.85;6.75;;;;;;;;;;4938008;27;2050187;-71
2023/05/10 02:10:05;;;;;;;16.02;6.78;;;;;;;;;;5030031;28;20111;-73
2023/05/10 02:12:34;;;;;;;19.13;7.22;;;;;;;;;;5026798;28;20053;-76
2023/05/10 02:15:03;;;;;;;19.73;7.90;;;;;;;;;;5026249;28;20048;-73
2023/05/10 02:17:31;;;;;;;18.15;8.32;;;;;;;;;;5049944;28;20048;-75
2023/05/10 02:19:59;;;;;;;18.40;8.23;;;;;;;;;;5047052;28;20049;-76
2023/05/10 02:22:26;;;;;;;20.40;8.05;;;;;;;;;;5046728;28;20056;-74
2023/05/10 02:24:55;;;;;;;19.73;8.75;;;;;;;;;;5048491;28;20117;-75
2023/05/10 02:27:21;;;;;;;;;;;;;;;;;;5026365;28;20052;-77
2023/05/10 02:29:48;;;;;;;18.35;7.97;;;;;;;;;;5051482;28;19924;-74
2023/05/10 02:32:15;;;;;;;16.40;8.13;;;;;;;;;;5048358;28;20052;-74
2023/05/10 02:34:44;;;;;;;20.02;8.57;;;;;;;;;;5049939;28;20098;-73
2023/05/10 02:37:11;;;;;;;17.67;7.88;;;;;;;;;;5014535;28;20052;-73
2023/05/10 02:39:43;;;;;;;18.13;8.13;;;;;;;;;;5066114;28;20160;-76
2023/05/10 02:42:15;;;;;;;18.77;8.45;;;;;;;;;;5037912;28;20139;-75
2023/05/10 02:44:42;;;;;;;22.40;9.25;;;;;;;;;;5050006;28;20059;-74
2023/05/10 02:47:09;;;;;;;23.65;9.05;;;;;;;;;;5003442;28;20163;-76
2023/05/10 02:49:35;;;;;;;21.80;9.10;;;;;;;;;;5065989;28;20052;-72
2023/05/10 02:52:06;;;;;;;21.20;9.50;;;;;;;;;;5058010;28;20057;-72
2023/05/10 02:54:34;;;;;;;19.88;9.30;;;;;;;;;;5044070;28;20055;-77
2023/05/10 02:57:02;;;;;;;23.25;10.00;;;;;;;;;;5023695;28;20114;-72
2023/05/10 02:59:30;;;;;;;21.15;9.77;;;;;;;;;;5045465;28;20519;-76
2023/05/10 03:01:57;;;;;;;20.75;9.10;;;;;;;;;;5057645;28;20072;-72
2023/05/10 03:04:23;;;;;;;24.50;10.40;;;;;;;;;;5045817;28;20051;-75
2023/05/10 03:06:50;;;;;;;24.33;10.63;;;;;;;;;;5021585;28;20144;-72
2023/05/10 03:09:16;;;;;;;23.63;10.30;;;;;;;;;;5024470;28;20076;-78
2023/05/10 03:11:50;;;;;;;24.20;10.48;;;;;;;;;;5036281;28;20048;-72
2023/05/10 03:14:22;;;;;;;22.88;10.43;;;;;;;;;;5033232;28;20155;-78
2023/05/10 03:16:53;;;;;;;20.88;9.90;;;;;;;;;;4985517;28;20065;-73
2023/05/10 03:19:25;;;;;;;23.92;10.20;;;;;;;;;;4933901;28;20372;-79
2023/05/10 03:21:53;;;;;;;23.30;9.95;;;;;;;;;;4925226;28;20110;-78
2023/05/10 03:24:21;;;;;;;21.17;9.77;;;;;;;;;;4934449;28;20047;-77
2023/05/10 03:26:48;;;;;;;26.25;10.55;;;;;;;;;;4924580;28;20059;-77
2023/05/10 03:29:15;;;;;;;23.85;10.55;;;;;;;;;;4925510;28;20058;-73
2023/05/10 03:31:42;;;;;;;20.67;10.18;;;;;;;;;;4983336;28;20076;-73
2023/05/10 03:34:11;;;;;;;25.70;11.23;;;;;;;;;;5010207;28;20049;-77
2023/05/10 03:36:37;;;;;;;25.05;10.93;;;;;;;;;;4973095;28;20144;-73
2023/05/10 03:39:10;;;;;;;23.10;10.57;;;;;;;;;;5027056;28;20048;-78
2023/05/10 03:41:37;;;;;;;22.88;10.43;;;;;;;;;;5033324;28;20056;-71
2023/05/10 03:44:06;;;;;;;21.95;10.15;;;;;;;;;;5024755;28;20490;-78
2023/05/10 03:46:33;;;;;;;26.55;11.45;;;;;;;;;;4977015;28;20053;-73
2023/05/10 03:49:02;;;;;;;22.48;10.75;;;;;;;;;;4991372;28;20046;-75
2023/05/10 03:51:33;;;;;;;23.45;11.27;;;;;;;;;;4977946;28;20088;-76
2023/05/10 03:54:00;;;;;;;21.98;10.57;;;;;;;;;;4995952;28;20131;-72
2023/05/10 03:56:29;;;;;;;21.40;9.88;;;;;;;;;;4968415;28;20285;-77
2023/05/10 03:58:56;;;;;;;21.05;10.57;;;;;;;;;;5019136;28;20077;-76
2023/05/10 04:01:23;;;;;;;25.35;11.05;;;;;;;;;;5025403;28;20142;-73
2023/05/10 04:03:49;;;;;;;23.40;11.10;;;;;;;;;;5035923;28;20056;-76
2023/05/10 04:06:16;;;;;;;22.20;10.60;;;;;;;;;;5017310;28;20062;-78
2023/05/10 04:08:44;;;;;;;26.08;11.35;;;;;;;;;;5036956;28;20143;-80
2023/05/10 04:11:12;;;;;;;25.23;11.55;;;;;;;;;;5022799;28;20159;-78
2023/05/10 04:13:38;;;;;;;28.17;11.30;;;;;;;;;;5035911;28;20052;-73
2023/05/10 04:16:06;;;;;;;26.20;11.82;;;;;;;;;;5004857;28;20055;-75
2023/05/10 04:18:32;;;;;;;24.38;11.02;;;;;;;;;;4996556;28;20088;-75
2023/05/10 04:20:59;;;;;;;25.05;12.02;;;;;;;;;;5044991;28;20142;-77
2023/05/10 04:23:27;;;;;;;28.27;12.10;;;;;;;;;;5024285;28;20068;-76
2023/05/10 04:26:00;;;;;;;24.85;12.15;;;;;;;;;;5052610;28;20056;-77
2023/05/10 04:28:27;;;;;;;22.65;11.07;;;;;;;;;;4955383;28;20068;-76
2023/05/10 04:31:04;;;;;;;28.67;11.45;;;;;;;;;;5011001;28;20049;-78
2023/05/10 04:33:34;;;;;;;24.05;11.27;;;;;;;;;;5008585;28;20061;-73
2023/05/10 04:36:01;;;;;;;24.70;11.75;;;;;;;;;;5015836;28;20045;-73
2023/05/10 04:38:30;;;;;;;25.30;11.18;;;;;;;;;;4903215;28;20293;-74
2023/05/10 04:41:12;;;;;;;24.42;11.40;;;;;;;;;;5000402;28;20053;-77
2023/05/10 04:43:38;;;;;;;26.35;11.63;;;;;;;;;;5028652;28;20056;-76
2023/05/10 04:46:09;;;;;;;25.02;10.45;;;;;;;;;;5013416;28;20045;-77
2023/05/10 04:59:38;;;;;;;26.92;11.00;;;;;;;;;;4878974;29;20052;-80
2023/05/10 05:02:11;;;;;;;22.33;11.00;;;;;;;;;;4915067;29;20098;-81
2023/05/10 05:04:37;;;;;;;22.73;10.90;;;;;;;;;;4946052;28;20176;-77
2023/05/10 05:07:04;;;;;;;25.05;11.52;;;;;;;;;;4975645;28;20057;-75
2023/05/10 05:09:32;;;;;;;27.70;11.98;;;;;;;;;;4969787;28;20053;-77
2023/05/10 05:11:59;;;;;;;21.33;10.23;;;;;;;;;;4993770;28;20053;-77
2023/05/10 05:14:30;;;;;;;26.05;10.95;;;;;;;;;;5021395;28;20059;-76
2023/05/10 05:17:05;;;;;;;22.40;10.77;;;;;;;;;;5005770;28;20049;-75
2023/05/10 05:19:33;;;;;;;23.70;12.00;;;;;;;;;;5012181;28;20063;-80
2023/05/10 05:22:00;;;;;;;24.77;10.70;;;;;;;;;;5030712;28;20051;-77
2023/05/10 05:24:35;;;;;;;27.08;11.20;;;;;;;;;;5034647;28;20056;-76
2023/05/10 05:27:13;;;;;;;24.20;10.43;;;;;;;;;;5024797;28;20044;-73
2023/05/10 05:29:42;;;;;;;23.30;10.32;;;;;;;;;;5008792;28;20048;-73
2023/05/10 05:32:19;;;;;;;24.80;11.02;;;;;;;;;;5025974;28;20052;-76
2023/05/10 05:34:51;;;;;;;23.42;10.07;;;;;;;;;;5032212;28;20099;-76
2023/05/10 05:37:18;;;;;;;22.02;10.95;;;;;;;;;;5024317;28;20109;-75
2023/05/10 05:40:01;;;;;;;28.60;10.95;;;;;;;;;;4946807;28;20058;-80
2023/05/10 05:42:28;;;;;;;23.80;10.98;;;;;;;;;;4960480;28;20050;-79
2023/05/10 05:44:55;;;;;;;25.15;10.57;;;;;;;;;;5019942;28;20052;-77
2023/05/10 05:47:31;;;;;;;23.15;10.48;;;;;;;;;;5034396;28;20155;-73
2023/05/10 05:50:04;;;;;;;27.05;11.63;;;;;;;;;;4963372;28;20057;-75
2023/05/10 05:52:31;;;;;;;21.02;9.48;;;;;;;;;;4984096;28;20063;-72
2023/05/10 05:55:00;;;;;;;28.23;11.23;;;;;;;;;;4977651;28;20049;-77
2023/05/10 05:57:35;;;;;;;23.30;10.40;;;;;;;;;;5005517;28;20045;-77
2023/05/10 06:00:09;;;;;;;25.73;10.98;;;;;;;;;;4997699;28;20053;-75
2023/05/10 06:02:40;;;;;;;21.40;11.25;;;;;;;;;;5039379;28;20049;-73
2023/05/10 06:05:15;;;;;;;25.25;10.75;;;;;;;;;;5032694;28;20044;-75
2023/05/10 06:07:43;;;;;;;24.85;11.15;;;;;;;;;;5022212;28;20056;-73
2023/05/10 06:10:19;;;;;;;27.35;11.27;;;;;;;;;;4929978;28;20046;-76
2023/05/10 06:12:48;;;;;;;26.73;12.20;;;;;;;;;;4953171;28;20137;-75
2023/05/10 06:15:25;;;;;;;;;;;;;;;;;;4933050;28;20054;-73
2023/05/10 06:17:53;;;;;;;24.48;9.77;;;;;;;;;;4925566;28;19966;-73
2023/05/10 06:20:25;;;;;;;27.48;10.30;;;;;;;;;;4885423;28;20059;-74
2023/05/10 06:22:52;;;;;;;26.40;11.73;;;;;;;;;;4899888;29;20123;-75
2023/05/10 06:25:21;;;;;;;24.88;10.93;;;;;;;;;;4915159;28;20055;-73
2023/05/10 06:27:56;;;;;;;23.52;11.30;;;;;;;;;;4902907;28;20052;-72
2023/05/10 06:30:27;;;;;;;26.58;12.00;;;;;;;;;;4943986;28;20048;-75
2023/05/10 06:32:55;;;;;;;27.70;11.77;;;;;;;;;;5051507;28;20135;-77
2023/05/10 06:35:24;;;;;;;;;;;;;;;;;;5031201;28;20052;-73
2023/05/10 06:37:53;;;;;;;24.75;10.15;;;;;;;;;;5024030;28;19996;-72
2023/05/10 06:40:27;;;;;;;27.85;12.23;;;;;;;;;;4946602;28;20065;-75
2023/05/10 06:42:56;;;;;;;31.15;12.57;;;;;;;;;;4965719;28;20054;-73
2023/05/10 06:45:27;;;;;;;26.38;12.80;;;;;;;;;;4971653;28;20045;-72
2023/05/10 06:53:08;;;;;;;28.23;12.63;;;;;;;;;;5073143;27;20521;-76
2023/05/10 06:55:37;;;;;;;28.58;13.18;;;;;;;;;;5055429;28;20044;-71
2023/05/10 06:58:07;;;;;;;29.45;13.27;;;;;;;;;;5033713;28;20053;-72
2023/05/10 07:00:40;;;;;;;31.25;13.70;;;;;;;;;;4954190;28;20045;-72
2023/05/10 07:03:13;;;;;;;31.70;13.57;;;;;;;;;;4990312;28;20042;-75
2023/05/10 07:05:46;;;;;;;32.10;12.95;;;;;;;;;;4994929;28;20132;-74
2023/05/10 07:08:14;;;;;;;28.27;12.90;;;;;;;;;;4997320;28;20054;-73
2023/05/10 07:10:43;;;;;;;31.20;12.57;;;;;;;;;;4893104;28;20054;-75
2023/05/10 07:16:02;;;;;;;31.90;13.27;;;;;;;;;;4968013;28;20057;-73
2023/05/10 07:18:38;;;;;;;32.15;13.07;;;;;;;;;;4951463;28;20134;-75
2023/05/10 07:34:21;;;;;;;34.38;14.50;;;;;;;;;;5085211;27;20417;-75
2023/05/10 07:36:49;;;;;;;32.40;13.80;;;;;;;;;;5075572;28;20044;-70
2023/05/10 07:39:21;;;;;;;33.28;13.70;;;;;;;;;;5020092;28;20064;-73
2023/05/10 07:41:53;;;;;;;27.90;12.63;;;;;;;;;;5048434;28;20056;-71
2023/05/10 07:44:20;;;;;;;37.25;14.38;;;;;;;;;;5028494;28;20089;-74
2023/05/10 07:46:47;;;;;;;31.98;13.75;;;;;;;;;;5017013;28;20053;-74
2023/05/10 07:49:14;;;;;;;33.75;14.48;;;;;;;;;;5003717;28;20072;-74
2023/05/10 07:51:43;;;;;;;30.58;13.80;;;;;;;;;;5062102;28;20048;-71
2023/05/10 07:54:17;;;;;;;31.27;12.73;;;;;;;;;;5013560;28;20088;-75
2023/05/10 07:56:46;;;;;;;38.47;14.30;;;;;;;;;;5015177;28;20053;-73
2023/05/10 07:59:20;;;;;;;33.40;13.48;;;;;;;;;;5020708;28;20160;-72
2023/05/10 08:01:49;;;;;;;31.35;13.02;;;;;;;;;;4906440;29;20055;-69
2023/05/10 08:04:25;;;;;;;34.05;12.93;;;;;;;;;;4917422;29;20055;-72
2023/05/10 08:06:55;;;;;;;29.80;12.98;;;;;;;;;;4915573;29;20067;-71
2023/05/10 08:09:25;;;;;;;28.77;13.13;;;;;;;;;;4936254;28;20074;-72
2023/05/10 08:11:59;;;;;;;31.92;12.77;;;;;;;;;;4980541;28;20053;-74
2023/05/10 08:14:29;;;;;;;29.10;12.88;;;;;;;;;;5013414;28;20054;-72
2023/05/10 08:16:56;;;;;;;27.88;11.95;;;;;;;;;;5008579;28;20123;-76
2023/05/10 08:19:23;;;;;;;26.98;12.55;;;;;;;;;;5012639;28;20049;-70
2023/05/10 08:21:50;;;;;;;26.48;10.55;;;;;;;;;;4993747;28;20058;-74
2023/05/10 08:24:20;;;;;;;32.50;12.32;;;;;;;;;;5031489;28;20049;-72
2023/05/10 08:26:47;;;;;;;25.20;10.68;;;;;;;;;;5019515;28;20054;-75
2023/05/10 08:29:17;;;;;;;24.67;10.88;;;;;;;;;;5023282;28;20068;-76
2023/05/10 08:31:49;;;;;;;24.90;11.02;;;;;;;;;;4956696;28;20068;-76
2023/05/10 08:34:16;;;;;;;23.27;11.38;;;;;;;;;;4976756;28;20081;-71
2023/05/10 08:36:55;;;;;;;21.73;10.03;;;;;;;;;;4971239;28;20042;-72
2023/05/10 08:39:26;;;;;;;21.63;9.15;;;;;;;;;;4964259;28;20154;-75
2023/05/10 08:41:53;;;;;;;21.60;9.68;;;;;;;;;;4983333;28;20076;-75
2023/05/10 08:44:29;;;;;;;23.55;9.32;;;;;;;;;;5004056;28;20068;-74
2023/05/10 08:46:58;;;;;;;20.80;9.13;;;;;;;;;;4998467;28;20046;-76
2023/05/10 08:49:27;;;;;;;18.27;8.55;;;;;;;;;;4991850;28;20058;-76
2023/05/10 08:51:53;;;;;;;;;;;;;;;;;;5000525;28;20049;-72
2023/05/10 08:54:22;;;;;;;21.13;8.80;;;;;;;;;;5021496;28;19957;-72
2023/05/10 08:56:53;;;;;;;21.17;9.32;;;;;;;;;;5015284;28;20052;-72
2023/05/10 08:59:25;;;;;;;21.50;9.40;;;;;;;;;;5007141;28;20106;-70
2023/05/10 09:02:10;;;;;;;20.25;8.60;;;;;;;;;;5024004;28;20056;-72
2023/05/10 09:04:45;;;;;;;20.48;8.45;;;;;;;;;;5000203;28;20085;-75
2023/05/10 09:07:18;;;;;;;19.40;7.93;;;;;;;;;;5021661;28;20049;-76
2023/05/10 09:09:46;;;;;;;18.85;7.97;;;;;;;;;;5008944;28;20138;-74
2023/05/10 09:12:17;;;;;;;15.05;6.88;;;;;;;;;;4942323;28;20046;-72
2023/05/10 09:14:46;;;;;;;16.15;7.45;;;;;;;;;;5023551;28;20055;-75
2023/05/10 09:17:13;;;;;;;18.95;8.00;;;;;;;;;;5012447;28;20045;-69
2023/05/10 09:19:46;;;;;;;17.17;7.43;;;;;;;;;;5004828;28;20060;-70
2023/05/10 09:22:18;;;;;;;14.00;6.85;;;;;;;;;;4915684;28;20067;-70
2023/05/10 09:24:49;;;;;;;15.30;7.28;;;;;;;;;;4923207;29;20051;-77
2023/05/10 09:27:23;;;;;;;16.13;7.35;;;;;;;;;;4917136;28;20181;-72
2023/05/10 09:29:54;;;;;;;15.63;7.40;;;;;;;;;;4920195;29;20079;-73
2023/05/10 09:32:22;;;;;;;15.30;6.65;;;;;;;;;;4914550;29;20153;-73
2023/05/10 09:34:50;;;;;;;20.50;7.55;;;;;;;;;;4958699;28;20142;-75
2023/05/10 09:37:17;;;;;;;14.90;6.53;;;;;;;;;;4972872;28;20054;-72
2023/05/10 09:39:49;;;;;;;15.85;7.03;;;;;;;;;;4991262;28;20054;-69
2023/05/10 09:42:19;;;;;;;18.98;7.10;;;;;;;;;;4993834;28;20135;-71
2023/05/10 09:44:56;;;;;;;;;;;;;;;;;;;;;
2023/05/10 09:47:23;;;;;;;14.30;6.30;;;;;;;;;;5009915;28;20139;-73
2023/05/10 09:49:53;;;;;;;15.82;7.03;;;;;;;;;;5014229;28;20060;-74
2023/05/10 09:52:23;;;;;;;14.07;6.28;;;;;;;;;;4998365;28;20076;-71
2023/05/10 09:54:57;;;;;;;14.60;6.45;;;;;;;;;;5017428;28;20107;-74
2023/05/10 09:57:32;;;;;;;13.63;5.93;;;;;;;;;;5013201;28;20140;-71
2023/05/10 10:00:01;;;;;;;14.55;6.65;;;;;;;;;;5014001;28;20085;-75
2023/05/10 10:02:29;;;;;;;12.85;5.80;;;;;;;;;;5004960;28;20061;-71
2023/05/10 10:05:11;;;;;;;13.70;6.03;;;;;;;;;;5020048;28;20037;-74
2023/05/10 10:07:40;;;;;;;14.25;5.80;;;;;;;;;;5018844;28;20058;-77
2023/05/10 10:10:12;;;;;;;14.32;5.97;;;;;;;;;;5012881;28;20151;-73
2023/05/10 10:12:41;;;;;;;11.07;5.20;;;;;;;;;;4993369;28;20196;-81
2023/05/10 10:15:11;;;;;;;13.48;5.75;;;;;;;;;;5009357;28;20061;-71
2023/05/10 10:17:38;;;;;;;13.07;5.60;;;;;;;;;;5034166;28;20062;-76
2023/05/10 10:20:07;;;;;;;13.73;5.50;;;;;;;;;;5012335;28;20061;-73
2023/05/10 10:22:33;;;;;;;17.67;5.82;;;;;;;;;;5016381;28;20148;-74
2023/05/10 10:25:09;;;;;;;13.30;6.00;;;;;;;;;;4978217;28;20097;-74
2023/05/10 10:27:46;;;;;;;11.45;5.70;;;;;;;;;;4977939;28;20081;-76
2023/05/10 10:30:24;;;;;;;13.18;5.80;;;;;;;;;;4975186;28;20117;-73
2023/05/10 10:33:05;;;;;;;14.95;5.85;;;;;;;;;;4978889;28;20097;-73
2023/05/10 10:35:33;;;;;;;11.55;5.28;;;;;;;;;;4972580;28;20062;-72
2023/05/10 10:37:59;;;;;;;12.63;5.40;;;;;;;;;;5006300;28;20181;-70
2023/05/10 10:40:30;;;;;;;11.75;4.88;;;;;;;;;;4981370;28;20058;-74
2023/05/10 10:43:03;;;;;;;13.23;5.70;;;;;;;;;;4940255;28;20077;-76
2023/05/10 10:45:32;;;;;;;11.98;5.20;;;;;;;;;;4972819;28;20117;-72
2023/05/10 10:48:19;;;;;;;10.80;5.30;;;;;;;;;;5000164;28;20050;-74
2023/05/10 10:50:46;;;;;;;13.18;5.32;;;;;;;;;;4992247;28;20068;-71
2023/05/10 10:53:13;;;;;;;13.82;5.35;;;;;;;;;;4992327;28;20060;-70
2023/05/10 10:55:47;;;;;;;12.48;4.85;;;;;;;;;;5017042;28;20053;-77
2023/05/10 10:58:32;;;;;;;12.02;5.30;;;;;;;;;;5007231;28;20140;-74
2023/05/10 11:01:11;;;;;;;10.80;5.22;;;;;;;;;;4994051;28;20061;-80
2023/05/10 11:03:39;;;;;;;12.80;5.13;;;;;;;;;;5005807;28;20057;-75
2023/05/10 11:06:06;;;;;;;12.67;4.83;;;;;;;;;;5005854;28;20058;-76
2023/05/10 11:08:47;;;;;;;10.48;4.93;;;;;;;;;;5006326;28;20314;-74
2023/05/10 11:11:25;;;;;;;11.27;5.20;;;;;;;;;;4979164;28;20140;-72
2023/05/10 11:13:52;;;;;;;12.43;5.30;;;;;;;;;;5018822;28;20057;-71
2023/05/10 11:16:20;;;;;;;10.45;4.60;;;;;;;;;;5017119;28;20104;-73
2023/05/10 11:18:58;;;;;;;14.02;4.63;;;;;;;;;;5007794;28;20072;-78
2023/05/10 11:21:25;;;;;;;11.05;4.70;;;;;;;;;;4990502;28;20053;-76
2023/05/10 11:23:56;;;;;;;10.75;4.82;;;;;;;;;;5001748;28;20054;-73
2023/05/10 11:26:25;;;;;;;13.15;5.00;;;;;;;;;;5002447;28;20088;-74
2023/05/10 11:28:52;;;;;;;11.50;5.15;;;;;;;;;;4995548;28;20060;-74
2023/05/10 11:31:21;;;;;;;10.10;4.77;;;;;;;;;;4952454;28;20053;-81
2023/05/10 11:33:48;;;;;;;12.05;5.22;;;;;;;;;;4943667;28;20090;-74
2023/05/10 11:36:16;;;;;;;10.32;4.43;;;;;;;;;;4935068;28;20127;-74
2023/05/10 11:38:46;;;;;;;10.45;4.80;;;;;;;;;;4918563;28;20059;-77
2023/05/10 11:41:25;;;;;;;10.02;4.70;;;;;;;;;;4909483;28;20181;-77
2023/05/10 11:43:53;;;;;;;11.32;4.93;;;;;;;;;;4896509;29;20046;-75
2023/05/10 11:46:26;;;;;;;10.52;5.03;;;;;;;;;;4937492;28;20142;-74
2023/05/10 11:49:03;;;;;;;12.48;5.05;;;;;;;;;;4922997;29;20051;-68
2023/05/10 11:51:36;;;;;;;9.80;4.53;;;;;;;;;;4947114;28;20058;-75
2023/05/10 11:54:07;;;;;;;11.48;5.05;;;;;;;;;;4945438;28;20058;-74
2023/05/10 11:56:34;;;;;;;11.82;4.82;;;;;;;;;;5027764;28;20120;-78
2023/05/10 11:59:04;;;;;;;11.60;4.78;;;;;;;;;;5008752;28;20064;-75
2023/05/10 12:01:35;;;;;;;9.90;4.70;;;;;;;;;;5014214;28;20053;-73
2023/05/10 12:04:14;;;;;;;10.05;4.82;;;;;;;;;;4999235;28;20045;-75
2023/05/10 12:06:41;;;;;;;11.23;4.80;;;;;;;;;;5015243;28;20057;-74
2023/05/10 12:09:12;;;;;;;8.80;4.22;;;;;;;;;;5008541;28;20065;-73
2023/05/10 12:11:55;;;;;;;8.95;4.43;;;;;;;;;;5005839;28;20049;-74
2023/05/10 12:14:24;;;;;;;9.63;4.55;;;;;;;;;;4883685;28;20052;-78
2023/05/10 12:16:52;;;;;;;12.52;4.60;;;;;;;;;;4966769;28;20089;-74
2023/05/10 12:19:24;;;;;;;10.10;4.43;;;;;;;;;;4978467;28;20149;-75
2023/05/10 12:21:51;;;;;;;9.52;4.15;;;;;;;;;;4969119;28;20069;-70
2023/05/10 12:24:25;;;;;;;9.23;3.92;;;;;;;;;;4996220;28;20058;-73
2023/05/10 12:26:54;;;;;;;8.48;3.97;;;;;;;;;;5020253;28;20053;-78
2023/05/10 12:29:22;;;;;;;9.38;4.32;;;;;;;;;;5014566;28;20144;-71
2023/05/10 12:31:54;;;;;;;10.17;4.17;;;;;;;;;;5017104;28;20117;-78
2023/05/10 12:34:27;;;;;;;9.55;3.88;;;;;;;;;;5014983;28;20144;-69
2023/05/10 12:36:54;;;;;;;10.57;3.83;;;;;;;;;;5021714;28;20057;-77
2023/05/10 12:39:21;;;;;;;9.38;4.18;;;;;;;;;;5010647;28;20152;-79
2023/05/10 12:41:47;;;;;;;7.85;3.83;;;;;;;;;;5017215;28;20053;-75
2023/05/10 12:44:14;;;;;;;9.18;3.97;;;;;;;;;;4997684;28;20111;-73
2023/05/10 12:46:40;;;;;;;8.27;3.72;;;;;;;;;;5016932;28;20065;-72
2023/05/10 12:49:08;;;;;;;8.55;3.70;;;;;;;;;;5022017;28;20096;-77
2023/05/10 12:51:35;;;;;;;8.48;4.35;;;;;;;;;;5013423;28;20120;-74
2023/05/10 12:54:01;;;;;;;8.48;4.22;;;;;;;;;;5015578;28;20155;-67
2023/05/10 12:56:28;;;;;;;8.85;3.88;;;;;;;;;;5018350;28;20050;-74
2023/05/10 12:58:55;;;;;;;9.57;4.05;;;;;;;;;;5023730;28;20163;-81
2023/05/10 13:01:21;;;;;;;9.00;4.63;;;;;;;;;;5013277;28;20057;-76
2023/05/10 13:03:56;;;;;;;8.00;3.97;;;;;;;;;;4984672;28;20060;-71
2023/05/10 13:06:35;;;;;;;8.85;4.05;;;;;;;;;;5015546;28;20053;-72
2023/05/10 13:09:02;;;;;;;8.27;3.90;;;;;;;;;;5017483;28;20046;-67
2023/05/10 13:11:31;;;;;;;8.65;3.90;;;;;;;;;;5013898;28;20057;-76
2023/05/10 13:13:58;;;;;;;9.10;3.80;;;;;;;;;;4936971;28;20051;-76
2023/05/10 13:19:11;;;;;;;9.48;4.35;;;;;;;;;;4922871;28;20134;-72
2023/05/10 13:21:44;;;;;;;7.28;3.83;;;;;;;;;;4920499;29;20059;-76
2023/05/10 13:36:45;;;;;;;8.23;4.13;;;;;;;;;;5080114;27;20393;-81
2023/05/10 13:39:23;;;;;;;8.70;4.15;;;;;;;;;;5048146;28;20064;-78
2023/05/10 13:41:53;;;;;;;10.27;4.72;;;;;;;;;;5073745;28;20095;-80
2023/05/10 13:44:27;;;;;;;7.60;3.85;;;;;;;;;;4930365;28;20082;-79
2023/05/10 13:47:01;;;;;;;8.65;4.22;;;;;;;;;;4955881;28;20093;-78
2023/05/10 13:49:37;;;;;;;11.20;4.38;;;;;;;;;;4928614;28;20067;-82
2023/05/10 13:52:09;;;;;;;7.97;4.40;;;;;;;;;;4925043;29;20122;-84
2023/05/10 13:57:18;;;;;;;8.52;4.10;;;;;;;;;;5076180;27;20451;-80
2023/05/10 13:59:47;;;;;;;8.02;4.05;;;;;;;;;;5063266;28;20052;-72
2023/05/10 14:02:14;;;;;;;9.35;3.95;;;;;;;;;;5052986;28;20089;-79
2023/05/10 14:04:45;;;;;;;9.35;4.28;;;;;;;;;;5008560;28;20110;-74
2023/05/10 14:07:14;;;;;;;7.75;4.20;;;;;;;;;;5062811;28;20049;-77
2023/05/10 14:09:42;;;;;;;7.93;4.18;;;;;;;;;;5046831;28;20052;-75
2023/05/10 14:12:11;;;;;;;8.25;4.50;;;;;;;;;;5057777;28;20063;-76
2023/05/10 14:14:39;;;;;;;10.02;4.22;;;;;;;;;;5047497;28;20048;-75
2023/05/10 14:17:09;;;;;;;7.47;3.90;;;;;;;;;;5084209;28;20104;-76
2023/05/10 14:19:38;;;;;;;7.72;4.10;;;;;;;;;;5042516;28;20047;-80
2023/05/10 14:22:08;;;;;;;7.20;3.95;;;;;;;;;;5064899;28;20059;-79
2023/05/10 14:24:34;;;;;;;9.23;3.88;;;;;;;;;;4989820;28;20053;-78
2023/05/10 14:27:06;;;;;;;6.93;3.60;;;;;;;;;;5009688;28;20073;-82
2023/05/10 14:29:33;;;;;;;8.43;3.70;;;;;;;;;;5018177;28;20061;-79
2023/05/10 14:32:06;;;;;;;8.45;4.10;;;;;;;;;;5032763;28;20095;-80
2023/05/10 14:34:33;;;;;;;8.63;3.55;;;;;;;;;;4979087;28;20050;-76
2023/05/10 14:37:04;;;;;;;7.40;3.72;;;;;;;;;;5008231;28;20053;-78
2023/05/10 14:39:31;;;;;;;8.07;3.65;;;;;;;;;;5049815;28;21554;-76
2023/05/10 14:41:58;;;;;;;10.95;3.58;;;;;;;;;;5053561;28;20045;-75
2023/05/10 14:44:27;;;;;;;6.88;3.70;;;;;;;;;;5045224;28;20035;-81
2023/05/10 14:46:54;;;;;;;6.80;3.30;;;;;;;;;;5064322;28;20067;-75
2023/05/10 14:49:27;;;;;;;7.00;3.60;;;;;;;;;;5047652;28;20163;-76
2023/05/10 14:51:54;;;;;;;7.40;3.20;;;;;;;;;;5048358;28;20045;-76
2023/05/10 14:54:28;;;;;;;6.95;3.50;;;;;;;;;;5039400;28;20047;-76
2023/05/10 14:57:18;;;;;;;8.30;3.65;;;;;;;;;;5063079;28;20064;-81
2023/05/10 14:59:48;;;;;;;6.32;3.22;;;;;;;;;;5045556;28;20045;-77
2023/05/10 15:02:16;;;;;;;7.05;3.22;;;;;;;;;;5047863;28;20053;-81
2023/05/10 15:04:46;;;;;;;6.60;2.97;;;;;;;;;;4999742;28;20060;-75
2023/05/10 15:07:15;;;;;;;7.93;3.50;;;;;;;;;;4993591;28;20081;-73
2023/05/10 15:09:44;;;;;;;7.20;3.03;;;;;;;;;;5003553;28;20055;-83
2023/05/10 15:12:13;;;;;;;6.40;3.08;;;;;;;;;;4992737;28;20057;-79
2023/05/10 15:24:28;;;;;;;6.97;3.10;;;;;;;;;;4937779;28;20422;-74
2023/05/10 15:27:06;;;;;;;6.20;3.25;;;;;;;;;;4954128;28;20051;-80
2023/05/10 15:29:35;;;;;;;7.13;3.17;;;;;;;;;;4978568;28;20057;-70
2023/05/10 15:32:02;;;;;;;6.63;3.05;;;;;;;;;;5016808;28;20057;-79
2023/05/10 15:34:35;;;;;;;7.65;3.20;;;;;;;;;;4982719;28;20053;-74
2023/05/10 15:37:05;;;;;;;8.95;3.30;;;;;;;;;;5035863;28;20060;-71
2023/05/10 15:39:33;;;;;;;7.10;3.22;;;;;;;;;;5030412;28;20096;-72
2023/05/10 15:42:03;;;;;;;7.53;3.13;;;;;;;;;;5039401;28;20053;-77
2023/05/10 15:44:30;;;;;;;6.03;2.73;;;;;;;;;;4978590;28;20075;-75
2023/05/10 15:46:59;;;;;;;6.20;2.90;;;;;;;;;;4984841;28;20052;-77
2023/05/10 15:49:26;;;;;;;6.10;3.00;;;;;;;;;;4990379;28;20342;-75
2023/05/10 15:51:56;;;;;;;6.85;3.20;;;;;;;;;;4982473;28;20092;-68
2023/05/10 16:01:43;;;;;;;6.80;3.20;;;;;;;;;;4852810;29;20364;-77
2023/05/10 16:04:16;;;;;;;7.18;2.90;;;;;;;;;;4926607;28;20162;-72
2023/05/10 16:06:45;;;;;;;5.50;2.60;;;;;;;;;;4896538;29;20064;-75
2023/05/10 16:09:16;;;;;;;7.13;2.80;;;;;;;;;;4893855;29;20076;-78
2023/05/10 16:14:46;;;;;;;5.18;2.28;;;;;;;;;;4889598;28;20047;-74
2023/05/10 16:17:19;;;;;;;6.45;2.90;;;;;;;;;;4962103;28;20050;-74
2023/05/10 16:19:47;;;;;;;7.82;2.83;;;;;;;;;;4979821;28;20049;-74
2023/05/10 16:22:16;;;;;;;8.18;3.75;;;;;;;;;;4983060;28;20045;-76
2023/05/10 16:32:03;;;;;;;7.22;2.83;;;;;;;;;;4911824;28;20152;-74
2023/05/10 16:39:44;;;;;;;7.38;3.05;;;;;;;;;;5073069;27;20433;-74
2023/05/10 16:42:17;;;;;;;7.57;3.28;;;;;;;;;;5045736;28;20057;-73
2023/05/10 16:44:54;;;;;;;7.45;3.30;;;;;;;;;;5006302;28;20048;-77
2023/05/10 16:47:25;;;;;;;5.90;3.03;;;;;;;;;;4873841;29;20488;-75
2023/05/10 16:52:49;;;;;;;7.00;2.95;;;;;;;;;;4885100;29;20131;-70
2023/05/10 16:55:24;;;;;;;8.77;3.35;;;;;;;;;;4865421;28;20055;-72
2023/05/10 16:57:51;;;;;;;6.20;3.00;;;;;;;;;;4939545;28;20153;-71
2023/05/10 17:00:19;;;;;;;7.10;3.00;;;;;;;;;;5003889;28;20084;-72
2023/05/10 17:02:45;;;;;;;;;;;;;;;;;;5008809;28;20057;-68
2023/05/10 17:05:12;;;;;;;6.40;2.78;;;;;;;;;;4986646;28;19960;-72
2023/05/10 17:07:39;;;;;;;5.95;3.00;;;;;;;;;;5009302;28;20065;-67
2023/05/10 17:10:07;;;;;;;6.50;3.20;;;;;;;;;;5010730;28;20058;-71
2023/05/10 17:12:37;;;;;;;12.90;3.65;;;;;;;;;;5011959;28;20057;-67
2023/05/10 17:15:06;;;;;;;8.02;3.13;;;;;;;;;;4996278;28;20074;-67
2023/05/10 17:17:32;;;;;;;7.15;3.17;;;;;;;;;;5011589;28;20148;-68
2023/05/10 17:19:59;;;;;;;6.85;2.95;;;;;;;;;;5014096;28;20080;-73
2023/05/10 17:22:28;;;;;;;8.18;3.40;;;;;;;;;;5010184;28;20061;-72
2023/05/10 17:24:58;;;;;;;8.27;3.50;;;;;;;;;;4990591;28;20049;-71
2023/05/10 17:27:49;;;;;;;9.27;3.42;;;;;;;;;;4963195;28;20346;-74
2023/05/10 17:30:24;;;;;;;9.20;2.92;;;;;;;;;;5013014;28;20135;-73
2023/05/10 17:32:52;;;;;;;7.45;3.00;;;;;;;;;;5011349;28;20181;-75
2023/05/10 17:35:19;;;;;;;10.18;3.92;;;;;;;;;;4999382;28;20061;-76
2023/05/10 17:37:46;;;;;;;7.85;3.30;;;;;;;;;;4984867;28;20148;-72
2023/05/10 17:40:14;;;;;;;8.38;3.90;;;;;;;;;;5015387;28;20089;-77
2023/05/10 17:42:44;;;;;;;8.77;3.65;;;;;;;;;;5010655;28;20081;-71
2023/05/10 17:45:15;;;;;;;8.30;3.33;;;;;;;;;;4993435;28;20236;-75
2023/05/10 17:47:45;;;;;;;10.95;3.80;;;;;;;;;;4913303;28;20094;-79
2023/05/10 17:50:11;;;;;;;8.27;3.50;;;;;;;;;;4949477;28;20094;-74
2023/05/10 17:52:38;;;;;;;7.75;3.58;;;;;;;;;;4945498;28;20113;-74
2023/05/10 17:55:12;;;;;;;8.10;3.47;;;;;;;;;;4933557;28;20125;-74
2023/05/10 17:57:40;;;;;;;9.65;3.22;;;;;;;;;;4934632;28;20093;-77
2023/05/10 18:00:10;;;;;;;8.43;3.00;;;;;;;;;;4997510;28;20076;-73
2023/05/10 18:02:38;;;;;;;8.52;3.30;;;;;;;;;;5032322;28;20072;-72
2023/05/10 18:05:09;;;;;;;8.25;3.22;;;;;;;;;;4984830;28;20053;-77
2023/05/10 18:07:39;;;;;;;7.15;3.33;;;;;;;;;;4927776;28;20050;-72
2023/05/10 18:10:09;;;;;;;6.30;2.70;;;;;;;;;;4932775;28;20057;-77
2023/05/10 18:12:39;;;;;;;9.68;3.75;;;;;;;;;;4957513;28;20054;-76
2023/05/10 18:15:14;;;;;;;8.48;3.42;;;;;;;;;;4924368;28;20050;-77
2023/05/10 18:22:38;;;;;;;7.68;3.33;;;;;;;;;;4868796;29;20160;-73
2023/05/10 18:25:14;;;;;;;9.55;3.60;;;;;;;;;;4903935;29;20096;-71
2023/05/10 18:27:43;;;;;;;7.05;3.67;;;;;;;;;;4890169;28;20060;-73